Flight Track Log - Related Links

Times and Time Zones

All times are in EDT time to prevent confusion due to time zone crossing. See the SWA315 flight status page for this flight to view local times or setup timezone preferences in your user account.

Time Position Orientation Groundspeed Altitude Reporting Facility
EDT Latitude Longitude Course Direction KTS MPH feet Rate Location/Type
Sun 12:52:03 PM 39.9000 -104.6833 45° Northeast 183 211 6,800  Level Denver TRACON
Sun 12:52:27 PM 39.9208 -104.6561 45° Northeast 197 227 7,300 2,400 Climbing Denver Center
Sun 12:53:03 PM 39.9500 -104.6167 46° Northeast 244 281 9,200 2,625 Climbing Denver TRACON
Sun 12:54:03 PM 39.9500 -104.5167 90° East 301 346 11,500 2,700 Climbing Denver TRACON
Sun 12:55:03 PM 39.9500 -104.3833 90° East 345 397 14,600 2,867 Climbing Denver TRACON
Sun 12:55:33 PM 39.9397 -104.3350 105° East 338 389 15,800 2,478 Climbing Denver Center
Sun 12:56:35 PM 39.9128 -104.2028 105° East 375 432 18,400 2,613 Climbing Denver Center
Sun 12:57:37 PM 39.9014 -104.0486 95° East 397 457 21,200 2,468 Climbing Denver Center
Sun 12:58:39 PM 39.8925 -103.9003 94° East 414 476 23,500 2,000 Climbing Denver Center
Sun 12:59:43 PM 39.8844 -103.7506 94° East 431 496 25,400 1,952 Climbing Denver Center
Sun 01:00:45 PM 39.9025 -103.5633 83° East 449 517 27,600 1,839 Climbing Denver Center
Sun 01:01:47 PM 39.9228 -103.3961 81° East 463 533 29,200 1,548 Climbing Denver Center
Sun 01:02:49 PM 39.9422 -103.2228 82° East 478 550 30,800 1,645 Climbing Denver Center
Sun 01:03:51 PM 39.9611 -103.0464 82° East 487 560 32,600 1,742 Climbing Denver Center
Sun 01:04:53 PM 39.9811 -102.8708 81° East 486 559 34,400 1,161 Climbing Denver Center
Sun 01:05:55 PM 39.9958 -102.7253 82° East 484 557 35,000 1,016 Climbing Denver Center
Sun 01:06:57 PM 40.0197 -102.4939 82° East 492 566 36,500 1,279 Climbing Denver Center
Sun 01:08:11 PM 40.0378 -102.3278 82° East 486 559 37,900 846 Climbing Denver Center
Sun 01:09:26 PM 40.0631 -102.0733 83° East 495 570 38,600 482 Climbing Denver Center
Sun 01:10:28 PM 40.0836 -101.8739 82° East 498 573 39,000 194 Climbing Denver Center
Sun 01:11:30 PM 40.1014 -101.7033 82° East 496 571 39,000  Level Denver Center
Sun 01:12:32 PM 40.1197 -101.5022 83° East 499 574 39,000  Level Denver Center
Sun 01:13:34 PM 40.1358 -101.3319 83° East 497 572 39,000  Level Denver Center
Sun 01:14:36 PM 40.1547 -101.1342 83° East 495 570 39,000  Level Denver Center
Sun 01:15:38 PM 40.1700 -100.9631 83° East 497 572 39,000  Level Denver Center
Sun 01:16:40 PM 40.1886 -100.7650 83° East 496 571 39,000  Level Denver Center
Sun 01:17:42 PM 40.2036 -100.5961 83° East 493 567 39,000  Level Denver Center
Sun 01:18:44 PM 40.2081 -100.3939 88° East 501 577 39,000  Level Denver Center
Sun 01:19:46 PM 40.2097 -100.2472 89° East 504 580 39,000  Level Denver Center
Sun 01:21:39 PM 40.2150 -99.8833 89° East 506 582 39,000  Level Minneapolis Center
Sun 01:22:40 PM 40.2175 -99.6997 89° East 507 583 39,000  Level Minneapolis Center
Sun 01:23:42 PM 40.2189 -99.4806 89° East 504 580 39,000  Level Minneapolis Center
Sun 01:24:07 PM 40.2186 -99.4428 91° East 505 581 39,000  Level Denver Center
Sun 01:25:09 PM 40.2211 -99.2272 89° East 498 573 39,000  Level Denver Center
Sun 01:26:23 PM 40.2219 -99.0486 90° East 495 570 39,000  Level Denver Center
Sun 01:27:26 PM 40.2222 -98.8350 90° East 492 566 39,000  Level Denver Center
Sun 01:27:49 PM 40.2225 -98.7642 90° East 493 567 39,000  Level Minneapolis Center
Sun 01:28:51 PM 40.2236 -98.5875 89° East 490 564 39,000  Level Minneapolis Center
Sun 01:29:52 PM 40.2228 -98.4100 90° East 490 564 39,000  Level Minneapolis Center
Sun 01:30:54 PM 40.2228 -98.1978 90° East 488 562 39,000  Level Minneapolis Center
Sun 01:31:56 PM 40.2211 -98.0194 91° East 490 564 39,000  Level Minneapolis Center
Sun 01:32:58 PM 40.2211 -97.8411 90° East 491 565 39,000  Level Minneapolis Center
Sun 01:33:59 PM 40.2197 -97.6631 91° East 491 565 39,000  Level Minneapolis Center
Sun 01:35:01 PM 40.2181 -97.4850 91° East 492 566 39,000  Level Minneapolis Center
Sun 01:36:03 PM 40.2172 -97.2953 90° East 490 564 39,000  Level Minneapolis Center
Sun 01:37:04 PM 40.2150 -97.1175 91° East 490 564 39,000  Level Minneapolis Center
Sun 01:38:06 PM 40.2119 -96.9411 91° East 488 562 39,000  Level Minneapolis Center
Sun 01:39:08 PM 40.2103 -96.7650 91° East 486 559 39,000  Level Minneapolis Center
Sun 01:40:09 PM 40.2069 -96.5875 91° East 489 563 39,000  Level Minneapolis Center
Sun 01:41:11 PM 40.2033 -96.3747 91° East 489 563 39,000  Level Minneapolis Center
Sun 01:42:13 PM 40.2000 -96.1992 91° East 488 562 39,000  Level Minneapolis Center
Sun 01:43:14 PM 40.1986 -96.0225 91° East 488 562 39,000  Level Minneapolis Center
Sun 01:44:16 PM 40.1992 -95.8433 90° East 492 566 39,000  Level Minneapolis Center
Sun 01:45:18 PM 40.1983 -95.6686 90° East 487 560 39,000  Level Minneapolis Center
Sun 01:46:19 PM 40.1969 -95.4967 91° East 479 551 39,000  Level Minneapolis Center
Sun 01:47:21 PM 40.1956 -95.3236 91° East 478 550 39,000  Level Minneapolis Center
Sun 01:48:23 PM 40.1939 -95.1136 91° East 481 554 39,000  Level Minneapolis Center
Sun 01:49:24 PM 40.1914 -94.9403 91° East 479 551 39,000  Level Minneapolis Center
Sun 01:50:26 PM 40.1892 -94.7656 91° East 481 554 39,000  Level Minneapolis Center
Sun 01:51:28 PM 40.1861 -94.5914 91° East 481 554 39,000  Level Minneapolis Center
Sun 01:52:29 PM 40.1828 -94.4125 91° East 483 556 39,000  Level Minneapolis Center
Sun 01:52:44 PM 40.1800 -94.3725 95° East 482 555 39,000  Level Kansas City Center
Sun 01:53:44 PM 40.1772 -94.2056 91° East 486 559 39,000  Level Kansas City Center
Sun 01:54:45 PM 40.1728 -94.0267 92° East 487 560 39,000  Level Kansas City Center
Sun 01:55:49 PM 40.1664 -93.8136 92° East 491 565 39,000  Level Kansas City Center
Sun 01:56:49 PM 40.1631 -93.6403 91° East 486 559 39,000  Level Kansas City Center
Sun 01:57:51 PM 40.1575 -93.4664 92° East 483 556 39,000  Level Kansas City Center
Sun 01:58:53 PM 40.1550 -93.2942 91° East 480 552 39,000  Level Kansas City Center
Sun 01:59:58 PM 40.1492 -93.1206 92° East 482 555 39,000  Level Kansas City Center
Sun 02:00:58 PM 40.1428 -92.9139 92° East 480 552 39,000  Level Kansas City Center
Sun 02:02:00 PM 40.1392 -92.7483 92° East 478 550 39,000  Level Kansas City Center
Sun 02:03:03 PM 40.1297 -92.5575 94° East 471 542 39,000  Level Kansas City Center
Sun 02:04:05 PM 40.1175 -92.3914 95° East 475 547 39,000  Level Kansas City Center
Sun 02:05:18 PM 40.1008 -92.2069 97° East 478 550 39,000  Level Kansas City Center
Sun 02:06:19 PM 40.0814 -92.0036 97° East 477 549 39,000  Level Kansas City Center
Sun 02:07:23 PM 40.0653 -91.8331 97° East 477 549 39,000  Level Kansas City Center
Sun 02:08:25 PM 40.0489 -91.6636 97° East 477 549 39,000  Level Kansas City Center
Sun 02:09:26 PM 40.0294 -91.4592 97° East 477 549 39,000  Level Kansas City Center
Sun 02:10:29 PM 40.0128 -91.2894 97° East 476 548 39,000  Level Kansas City Center
Sun 02:11:29 PM 39.9950 -91.1211 98° East 474 545 39,000  Level Kansas City Center
Sun 02:12:33 PM 39.9800 -90.9658 97° East 473 544 39,000  Level Kansas City Center
Sun 02:13:34 PM 39.9583 -90.7628 98° East 473 544 39,000  Level Kansas City Center
Sun 02:14:35 PM 39.9403 -90.5942 98° East 472 543 39,000  Level Kansas City Center
Sun 02:15:37 PM 39.9228 -90.4242 98° East 475 547 39,000 -97 Level Kansas City Center
Sun 02:16:39 PM 39.9031 -90.2550 99° East 476 548 38,800 -1,190 Descending Kansas City Center
Sun 02:17:43 PM 39.8850 -90.0861 98° East 475 547 36,500 -1,839 Descending Kansas City Center
Sun 02:18:43 PM 39.8625 -89.8861 98° East 472 543 35,000 -1,403 Descending Kansas City Center
Sun 02:19:47 PM 39.8442 -89.7203 98° East 467 537 33,600 -1,584 Descending Kansas City Center
Sun 02:20:48 PM 39.8403 -89.5553 92° East 462 532 31,700 -1,415 Descending Kansas City Center
Sun 02:21:50 PM 39.8403 -89.3858 90° East 466 536 30,700 -976 Descending Kansas City Center
Sun 02:22:51 PM 39.8411 -89.2144 90° East 471 542 29,700 -823 Descending Kansas City Center
Sun 02:23:54 PM 39.8411 -89.0419 90° East 477 549 29,000 -339 Descending Kansas City Center
Sun 02:24:55 PM 39.8414 -88.8386 90° East 473 544 29,000  Level Kansas City Center
Sun 02:25:59 PM 39.8414 -88.6656 90° East 476 548 29,000  Level Kansas City Center
Sun 02:27:00 PM 39.8422 -88.4956 90° East 474 545 29,000 -1,537 Level Kansas City Center
Sun 02:28:00 PM 39.8428 -88.3211 90° East 479 551 25,900 -2,400 Descending Kansas City Center
Sun 02:29:05 PM 39.8425 -88.1453 90° East 473 544 24,000 -1,281 Descending Kansas City Center
Sun 02:29:29 PM 39.8408 -88.0825 92° East 471 542 24,000  Level Indianapolis Center
Sun 02:30:31 PM 39.8394 -87.9208 91° East 462 532 24,000  Level Indianapolis Center
Sun 02:31:33 PM 39.8369 -87.7294 91° East 451 519 24,000 -1,065 Level Indianapolis Center
Sun 02:32:35 PM 39.8350 -87.5689 91° East 446 513 21,800 -2,274 Descending Indianapolis Center
Sun 02:33:37 PM 39.8331 -87.4139 91° East 440 506 19,300 -2,323 Descending Indianapolis Center
Sun 02:34:39 PM 39.8311 -87.2642 91° East 431 496 17,000 -2,565 Descending Indianapolis Center
Sun 02:35:41 PM 39.8286 -87.1192 91° East 419 482 14,000 -2,468 Descending Indianapolis Center
Sun 02:36:43 PM 39.8253 -86.9792 92° East 407 468 11,900 -1,500 Descending Indianapolis Center
Sun 02:37:45 PM 39.7964 -86.8544 107° East 385 443 10,900 -823 Descending Indianapolis Center
Sun 02:38:47 PM 39.7558 -86.7511 117° Southeast 352 405 10,200 -1,403 Descending Indianapolis Center
Sun 02:39:49 PM 39.7125 -86.6403 117° Southeast 316 364 8,000 -1,935 Descending Indianapolis Center
Sun 02:40:51 PM 39.6775 -86.5528 117° Southeast 296 341 6,200 -1,500 Descending Indianapolis Center
Sun 02:41:53 PM 39.6486 -86.4736 115° Southeast 288 331 4,900 -1,660 Descending Indianapolis Center
Sun 02:43:30 PM 39.6667 -86.3667 78° East 147 169 1,800 -1,490 Descending Indianapolis TRACON
Sun 02:44:30 PM 39.7000 -86.3333 38° Northeast 125 144 1,000 -800 Descending Indianapolis TRACON
Sun 02:46:00 PM 39.7173 -86.2947 142° Southeast  Level Estimated
Sun 02:53:00 PM 39.7173 -86.2947 142° Southeast  Level Estimated

Login

Don't have an account? Register now (free) for customized features, flight alerts, and more!